sensor_id;sensor_type;location;lat;lon;timestamp;P1;durP1;ratioP1;P2;durP2;ratioP2
12832;SDS011;6483;51.310;4.462;2022-10-31T00:03:53;18.60;;;12.07;;
12832;SDS011;6483;51.310;4.462;2022-10-31T00:06:18;17.30;;;11.48;;
12832;SDS011;6483;51.310;4.462;2022-10-31T00:08:55;18.30;;;11.45;;
12832;SDS011;6483;51.310;4.462;2022-10-31T00:11:22;21.05;;;11.90;;
12832;SDS011;6483;51.310;4.462;2022-10-31T00:13:48;20.98;;;11.60;;
12832;SDS011;6483;51.310;4.462;2022-10-31T00:16:17;22.23;;;12.10;;
12832;SDS011;6483;51.310;4.462;2022-10-31T00:19:05;14.50;;;11.43;;
12832;SDS011;6483;51.310;4.462;2022-10-31T00:21:37;15.00;;;11.05;;
12832;SDS011;6483;51.310;4.462;2022-10-31T00:24:04;18.48;;;10.18;;
12832;SDS011;6483;51.310;4.462;2022-10-31T00:26:33;18.08;;;10.60;;
12832;SDS011;6483;51.310;4.462;2022-10-31T00:28:59;16.45;;;10.20;;
12832;SDS011;6483;51.310;4.462;2022-10-31T00:31:25;17.25;;;10.70;;
12832;SDS011;6483;51.310;4.462;2022-10-31T00:33:51;14.47;;;9.37;;
12832;SDS011;6483;51.310;4.462;2022-10-31T00:36:18;13.48;;;9.80;;
12832;SDS011;6483;51.310;4.462;2022-10-31T00:38:45;15.33;;;9.37;;
12832;SDS011;6483;51.310;4.462;2022-10-31T00:41:13;21.80;;;11.00;;
12832;SDS011;6483;51.310;4.462;2022-10-31T00:43:41;15.68;;;10.68;;
12832;SDS011;6483;51.310;4.462;2022-10-31T00:46:15;15.20;;;10.40;;
12832;SDS011;6483;51.310;4.462;2022-10-31T00:48:41;17.50;;;11.00;;
12832;SDS011;6483;51.310;4.462;2022-10-31T00:51:08;17.40;;;11.63;;
12832;SDS011;6483;51.310;4.462;2022-10-31T00:53:34;16.13;;;10.23;;
12832;SDS011;6483;51.310;4.462;2022-10-31T00:56:03;18.88;;;10.27;;
12832;SDS011;6483;51.310;4.462;2022-10-31T00:58:29;16.45;;;10.55;;
12832;SDS011;6483;51.310;4.462;2022-10-31T01:00:57;19.13;;;11.35;;
12832;SDS011;6483;51.310;4.462;2022-10-31T01:03:27;20.60;;;11.70;;
12832;SDS011;6483;51.310;4.462;2022-10-31T01:05:55;16.92;;;10.77;;
12832;SDS011;6483;51.310;4.462;2022-10-31T01:08:25;17.90;;;11.73;;
12832;SDS011;6483;51.310;4.462;2022-10-31T01:11:08;20.70;;;11.73;;
12832;SDS011;6483;51.310;4.462;2022-10-31T01:13:37;18.92;;;12.82;;
12832;SDS011;6483;51.310;4.462;2022-10-31T01:16:04;15.80;;;11.03;;
12832;SDS011;6483;51.310;4.462;2022-10-31T01:18:34;17.70;;;9.73;;
12832;SDS011;6483;51.310;4.462;2022-10-31T01:21:22;14.93;;;9.32;;
12832;SDS011;6483;51.310;4.462;2022-10-31T01:23:48;13.43;;;9.60;;
12832;SDS011;6483;51.310;4.462;2022-10-31T01:26:18;17.03;;;10.80;;
12832;SDS011;6483;51.310;4.462;2022-10-31T01:28:56;18.67;;;10.37;;
12832;SDS011;6483;51.310;4.462;2022-10-31T01:31:24;15.97;;;10.33;;
12832;SDS011;6483;51.310;4.462;2022-10-31T01:33:51;15.33;;;9.53;;
12832;SDS011;6483;51.310;4.462;2022-10-31T01:36:28;12.47;;;9.07;;
12832;SDS011;6483;51.310;4.462;2022-10-31T01:38:58;12.03;;;8.97;;
12832;SDS011;6483;51.310;4.462;2022-10-31T01:41:28;15.23;;;8.93;;
12832;SDS011;6483;51.310;4.462;2022-10-31T01:54:36;15.63;;;9.43;;
12832;SDS011;6483;51.310;4.462;2022-10-31T01:57:05;17.03;;;9.97;;
12832;SDS011;6483;51.310;4.462;2022-10-31T01:59:35;14.13;;;9.10;;
12832;SDS011;6483;51.310;4.462;2022-10-31T02:02:05;12.63;;;8.70;;
12832;SDS011;6483;51.310;4.462;2022-10-31T02:04:31;13.37;;;8.70;;
12832;SDS011;6483;51.310;4.462;2022-10-31T02:07:10;14.70;;;8.50;;
12832;SDS011;6483;51.310;4.462;2022-10-31T02:09:46;15.40;;;8.48;;
12832;SDS011;6483;51.310;4.462;2022-10-31T02:12:14;11.93;;;8.60;;
12832;SDS011;6483;51.310;4.462;2022-10-31T02:14:41;14.40;;;9.13;;
12832;SDS011;6483;51.310;4.462;2022-10-31T02:17:07;16.90;;;8.50;;
12832;SDS011;6483;51.310;4.462;2022-10-31T02:22:24;13.73;;;9.07;;
12832;SDS011;6483;51.310;4.462;2022-10-31T02:30:10;15.50;;;10.27;;
12832;SDS011;6483;51.310;4.462;2022-10-31T02:32:59;16.13;;;10.77;;
12832;SDS011;6483;51.310;4.462;2022-10-31T02:38:36;18.30;;;11.47;;
12832;SDS011;6483;51.310;4.462;2022-10-31T02:41:50;22.80;;;11.33;;
12832;SDS011;6483;51.310;4.462;2022-10-31T02:47:38;17.03;;;10.07;;
12832;SDS011;6483;51.310;4.462;2022-10-31T02:52:56;15.87;;;10.23;;
12832;SDS011;6483;51.310;4.462;2022-10-31T02:57:56;15.57;;;9.47;;
12832;SDS011;6483;51.310;4.462;2022-10-31T03:00:37;13.10;;;9.23;;
12832;SDS011;6483;51.310;4.462;2022-10-31T03:03:16;16.90;;;9.47;;
12832;SDS011;6483;51.310;4.462;2022-10-31T03:08:50;14.67;;;9.40;;
12832;SDS011;6483;51.310;4.462;2022-10-31T03:11:37;13.23;;;9.83;;
12832;SDS011;6483;51.310;4.462;2022-10-31T03:17:40;17.80;;;10.93;;
12832;SDS011;6483;51.310;4.462;2022-10-31T03:20:25;15.97;;;10.27;;
12832;SDS011;6483;51.310;4.462;2022-10-31T03:22:58;20.23;;;11.50;;
12832;SDS011;6483;51.310;4.462;2022-10-31T03:25:26;18.83;;;10.63;;
12832;SDS011;6483;51.310;4.462;2022-10-31T03:27:53;21.90;;;10.77;;
12832;SDS011;6483;51.310;4.462;2022-10-31T03:30:20;19.50;;;10.30;;
12832;SDS011;6483;51.310;4.462;2022-10-31T03:32:51;19.73;;;10.87;;
12832;SDS011;6483;51.310;4.462;2022-10-31T03:35:19;17.67;;;10.30;;
12832;SDS011;6483;51.310;4.462;2022-10-31T03:37:48;16.83;;;10.57;;
12832;SDS011;6483;51.310;4.462;2022-10-31T03:40:17;13.73;;;9.93;;
12832;SDS011;6483;51.310;4.462;2022-10-31T03:42:48;15.60;;;9.17;;
12832;SDS011;6483;51.310;4.462;2022-10-31T03:45:30;16.80;;;9.40;;
12832;SDS011;6483;51.310;4.462;2022-10-31T03:47:58;14.37;;;9.63;;
12832;SDS011;6483;51.310;4.462;2022-10-31T03:50:26;15.20;;;8.33;;
12832;SDS011;6483;51.310;4.462;2022-10-31T03:53:03;14.73;;;8.73;;
12832;SDS011;6483;51.310;4.462;2022-10-31T03:58:28;13.27;;;8.60;;
12832;SDS011;6483;51.310;4.462;2022-10-31T04:01:13;15.60;;;8.53;;
12832;SDS011;6483;51.310;4.462;2022-10-31T04:03:41;16.73;;;10.67;;
12832;SDS011;6483;51.310;4.462;2022-10-31T04:06:09;15.07;;;9.17;;
12832;SDS011;6483;51.310;4.462;2022-10-31T04:08:41;13.10;;;8.77;;
12832;SDS011;6483;51.310;4.462;2022-10-31T04:11:10;18.27;;;8.67;;
12832;SDS011;6483;51.310;4.462;2022-10-31T04:13:42;15.43;;;9.07;;
12832;SDS011;6483;51.310;4.462;2022-10-31T04:16:09;11.33;;;8.37;;
12832;SDS011;6483;51.310;4.462;2022-10-31T04:18:36;12.90;;;9.20;;
12832;SDS011;6483;51.310;4.462;2022-10-31T04:21:06;14.53;;;9.53;;
12832;SDS011;6483;51.310;4.462;2022-10-31T04:23:35;14.37;;;9.77;;
12832;SDS011;6483;51.310;4.462;2022-10-31T04:26:01;15.07;;;9.33;;
12832;SDS011;6483;51.310;4.462;2022-10-31T04:28:27;13.87;;;8.80;;
12832;SDS011;6483;51.310;4.462;2022-10-31T04:30:56;12.17;;;8.37;;
12832;SDS011;6483;51.310;4.462;2022-10-31T04:33:21;17.77;;;9.37;;
12832;SDS011;6483;51.310;4.462;2022-10-31T04:35:47;16.40;;;9.40;;
12832;SDS011;6483;51.310;4.462;2022-10-31T04:38:16;14.43;;;9.27;;
12832;SDS011;6483;51.310;4.462;2022-10-31T04:40:42;14.13;;;8.83;;
12832;SDS011;6483;51.310;4.462;2022-10-31T04:43:08;11.23;;;8.53;;
12832;SDS011;6483;51.310;4.462;2022-10-31T04:45:33;15.33;;;9.43;;
12832;SDS011;6483;51.310;4.462;2022-10-31T04:47:59;14.17;;;9.63;;
12832;SDS011;6483;51.310;4.462;2022-10-31T04:50:25;18.87;;;9.80;;
12832;SDS011;6483;51.310;4.462;2022-10-31T04:52:56;12.90;;;8.43;;
12832;SDS011;6483;51.310;4.462;2022-10-31T04:55:22;12.73;;;8.87;;
12832;SDS011;6483;51.310;4.462;2022-10-31T04:57:48;15.33;;;9.43;;
12832;SDS011;6483;51.310;4.462;2022-10-31T05:00:17;17.47;;;9.73;;
12832;SDS011;6483;51.310;4.462;2022-10-31T05:02:44;13.63;;;9.60;;
12832;SDS011;6483;51.310;4.462;2022-10-31T05:05:12;19.90;;;10.07;;
12832;SDS011;6483;51.310;4.462;2022-10-31T05:10:25;16.77;;;11.43;;
12832;SDS011;6483;51.310;4.462;2022-10-31T05:12:56;20.77;;;10.23;;
12832;SDS011;6483;51.310;4.462;2022-10-31T05:15:24;16.47;;;9.80;;
12832;SDS011;6483;51.310;4.462;2022-10-31T05:17:51;13.73;;;9.70;;
12832;SDS011;6483;51.310;4.462;2022-10-31T05:20:21;23.00;;;12.07;;
12832;SDS011;6483;51.310;4.462;2022-10-31T05:22:50;22.43;;;11.20;;
12832;SDS011;6483;51.310;4.462;2022-10-31T05:25:18;22.67;;;11.37;;
12832;SDS011;6483;51.310;4.462;2022-10-31T05:27:46;24.90;;;12.30;;
12832;SDS011;6483;51.310;4.462;2022-10-31T05:30:13;17.40;;;12.07;;
12832;SDS011;6483;51.310;4.462;2022-10-31T05:32:42;24.10;;;12.37;;
12832;SDS011;6483;51.310;4.462;2022-10-31T05:35:13;26.03;;;14.57;;
12832;SDS011;6483;51.310;4.462;2022-10-31T05:37:44;33.87;;;14.83;;
12832;SDS011;6483;51.310;4.462;2022-10-31T05:40:11;26.23;;;14.80;;
12832;SDS011;6483;51.310;4.462;2022-10-31T05:42:42;29.27;;;14.93;;
12832;SDS011;6483;51.310;4.462;2022-10-31T05:45:13;30.17;;;14.37;;
12832;SDS011;6483;51.310;4.462;2022-10-31T05:47:42;26.60;;;15.00;;
12832;SDS011;6483;51.310;4.462;2022-10-31T05:50:18;25.53;;;14.27;;
12832;SDS011;6483;51.310;4.462;2022-10-31T05:52:53;25.73;;;14.70;;
12832;SDS011;6483;51.310;4.462;2022-10-31T05:55:20;28.47;;;15.70;;
12832;SDS011;6483;51.310;4.462;2022-10-31T05:57:46;24.70;;;14.93;;
12832;SDS011;6483;51.310;4.462;2022-10-31T06:00:15;19.07;;;13.53;;
12832;SDS011;6483;51.310;4.462;2022-10-31T06:02:42;25.50;;;14.93;;
12832;SDS011;6483;51.310;4.462;2022-10-31T06:05:07;26.87;;;16.73;;
12832;SDS011;6483;51.310;4.462;2022-10-31T06:07:34;24.57;;;15.77;;
12832;SDS011;6483;51.310;4.462;2022-10-31T06:10:05;23.47;;;15.43;;
12832;SDS011;6483;51.310;4.462;2022-10-31T06:12:32;25.00;;;14.83;;
12832;SDS011;6483;51.310;4.462;2022-10-31T06:15:04;25.80;;;15.77;;
12832;SDS011;6483;51.310;4.462;2022-10-31T06:17:34;24.83;;;15.27;;
12832;SDS011;6483;51.310;4.462;2022-10-31T06:20:00;25.70;;;16.17;;
12832;SDS011;6483;51.310;4.462;2022-10-31T06:22:27;21.27;;;15.30;;
12832;SDS011;6483;51.310;4.462;2022-10-31T06:24:53;27.70;;;15.03;;
12832;SDS011;6483;51.310;4.462;2022-10-31T06:27:18;22.83;;;14.30;;
12832;SDS011;6483;51.310;4.462;2022-10-31T06:29:44;24.33;;;14.77;;
12832;SDS011;6483;51.310;4.462;2022-10-31T06:32:11;23.03;;;14.20;;
12832;SDS011;6483;51.310;4.462;2022-10-31T06:34:37;23.73;;;14.40;;
12832;SDS011;6483;51.310;4.462;2022-10-31T06:37:10;20.23;;;14.00;;
12832;SDS011;6483;51.310;4.462;2022-10-31T06:39:36;22.10;;;13.63;;
12832;SDS011;6483;51.310;4.462;2022-10-31T06:42:02;26.30;;;16.13;;
12832;SDS011;6483;51.310;4.462;2022-10-31T06:44:30;21.27;;;15.27;;
12832;SDS011;6483;51.310;4.462;2022-10-31T06:46:56;18.80;;;14.10;;
12832;SDS011;6483;51.310;4.462;2022-10-31T06:49:22;21.33;;;14.00;;
12832;SDS011;6483;51.310;4.462;2022-10-31T06:51:50;20.30;;;14.07;;
12832;SDS011;6483;51.310;4.462;2022-10-31T06:54:17;20.40;;;14.03;;
12832;SDS011;6483;51.310;4.462;2022-10-31T06:56:45;18.87;;;13.50;;
12832;SDS011;6483;51.310;4.462;2022-10-31T06:59:12;20.47;;;13.80;;
12832;SDS011;6483;51.310;4.462;2022-10-31T07:01:38;24.03;;;15.00;;
12832;SDS011;6483;51.310;4.462;2022-10-31T07:04:03;23.97;;;13.73;;
12832;SDS011;6483;51.310;4.462;2022-10-31T07:06:29;22.53;;;14.27;;
12832;SDS011;6483;51.310;4.462;2022-10-31T07:08:55;22.20;;;13.53;;
12832;SDS011;6483;51.310;4.462;2022-10-31T07:11:21;24.23;;;14.73;;
12832;SDS011;6483;51.310;4.462;2022-10-31T07:13:49;22.07;;;15.00;;
12832;SDS011;6483;51.310;4.462;2022-10-31T07:16:15;27.90;;;16.60;;
12832;SDS011;6483;51.310;4.462;2022-10-31T07:18:43;21.83;;;15.37;;
12832;SDS011;6483;51.310;4.462;2022-10-31T07:21:09;23.77;;;13.83;;
12832;SDS011;6483;51.310;4.462;2022-10-31T07:23:35;26.70;;;14.33;;
12832;SDS011;6483;51.310;4.462;2022-10-31T07:26:00;24.87;;;14.63;;
12832;SDS011;6483;51.310;4.462;2022-10-31T07:28:26;23.20;;;14.63;;
12832;SDS011;6483;51.310;4.462;2022-10-31T07:30:56;23.17;;;14.40;;
12832;SDS011;6483;51.310;4.462;2022-10-31T07:33:22;27.30;;;16.80;;
12832;SDS011;6483;51.310;4.462;2022-10-31T07:35:50;30.73;;;18.80;;
12832;SDS011;6483;51.310;4.462;2022-10-31T07:38:16;28.00;;;16.93;;
12832;SDS011;6483;51.310;4.462;2022-10-31T07:40:42;31.25;;;17.35;;
12832;SDS011;6483;51.310;4.462;2022-10-31T07:43:09;31.80;;;19.65;;
12832;SDS011;6483;51.310;4.462;2022-10-31T07:45:36;33.03;;;19.98;;
12832;SDS011;6483;51.310;4.462;2022-10-31T07:48:05;26.42;;;16.83;;
12832;SDS011;6483;51.310;4.462;2022-10-31T07:50:32;26.95;;;17.23;;
12832;SDS011;6483;51.310;4.462;2022-10-31T07:53:11;22.35;;;15.65;;
12832;SDS011;6483;51.310;4.462;2022-10-31T07:55:41;26.98;;;18.50;;
12832;SDS011;6483;51.310;4.462;2022-10-31T07:58:11;26.48;;;17.63;;
12832;SDS011;6483;51.310;4.462;2022-10-31T08:00:38;26.10;;;17.30;;
12832;SDS011;6483;51.310;4.462;2022-10-31T08:05:38;27.38;;;18.45;;
12832;SDS011;6483;51.310;4.462;2022-10-31T08:08:10;25.08;;;17.55;;
12832;SDS011;6483;51.310;4.462;2022-10-31T08:10:36;29.45;;;19.33;;
12832;SDS011;6483;51.310;4.462;2022-10-31T08:13:03;30.60;;;19.20;;
12832;SDS011;6483;51.310;4.462;2022-10-31T08:15:32;31.20;;;19.13;;
12832;SDS011;6483;51.310;4.462;2022-10-31T08:18:01;24.92;;;16.63;;
12832;SDS011;6483;51.310;4.462;2022-10-31T08:20:27;29.77;;;19.58;;
12832;SDS011;6483;51.310;4.462;2022-10-31T08:22:54;32.28;;;20.23;;
12832;SDS011;6483;51.310;4.462;2022-10-31T08:25:21;25.92;;;18.60;;
12832;SDS011;6483;51.310;4.462;2022-10-31T08:27:51;29.55;;;20.30;;
12832;SDS011;6483;51.310;4.462;2022-10-31T08:30:24;30.45;;;20.55;;
12832;SDS011;6483;51.310;4.462;2022-10-31T08:35:59;29.33;;;19.63;;
12832;SDS011;6483;51.310;4.462;2022-10-31T08:38:27;30.42;;;20.05;;
12832;SDS011;6483;51.310;4.462;2022-10-31T08:40:53;29.33;;;20.45;;
12832;SDS011;6483;51.310;4.462;2022-10-31T08:43:18;31.73;;;21.00;;
12832;SDS011;6483;51.310;4.462;2022-10-31T08:45:48;30.60;;;20.02;;
12832;SDS011;6483;51.310;4.462;2022-10-31T08:48:17;33.53;;;21.70;;
12832;SDS011;6483;51.310;4.462;2022-10-31T08:50:43;30.13;;;21.88;;
12832;SDS011;6483;51.310;4.462;2022-10-31T08:53:17;33.30;;;21.65;;
12832;SDS011;6483;51.310;4.462;2022-10-31T08:55:47;35.15;;;22.92;;
12832;SDS011;6483;51.310;4.462;2022-10-31T08:58:17;33.22;;;22.98;;
12832;SDS011;6483;51.310;4.462;2022-10-31T09:00:45;31.98;;;22.73;;
12832;SDS011;6483;51.310;4.462;2022-10-31T09:03:13;39.20;;;23.67;;
12832;SDS011;6483;51.310;4.462;2022-10-31T09:05:59;38.58;;;24.08;;
12832;SDS011;6483;51.310;4.462;2022-10-31T09:09:05;31.63;;;21.50;;
12832;SDS011;6483;51.310;4.462;2022-10-31T09:11:35;29.98;;;21.73;;
12832;SDS011;6483;51.310;4.462;2022-10-31T09:14:19;29.42;;;21.30;;
12832;SDS011;6483;51.310;4.462;2022-10-31T09:16:47;30.73;;;19.90;;
12832;SDS011;6483;51.310;4.462;2022-10-31T09:19:13;27.73;;;19.38;;
12832;SDS011;6483;51.310;4.462;2022-10-31T09:21:39;26.33;;;18.60;;
12832;SDS011;6483;51.310;4.462;2022-10-31T09:24:04;23.00;;;16.85;;
12832;SDS011;6483;51.310;4.462;2022-10-31T09:26:36;26.60;;;17.77;;
12832;SDS011;6483;51.310;4.462;2022-10-31T09:29:02;23.92;;;16.20;;
12832;SDS011;6483;51.310;4.462;2022-10-31T09:31:30;30.08;;;17.90;;
12832;SDS011;6483;51.310;4.462;2022-10-31T09:33:56;23.15;;;16.48;;
12832;SDS011;6483;51.310;4.462;2022-10-31T09:36:24;23.20;;;17.60;;
12832;SDS011;6483;51.310;4.462;2022-10-31T09:38:51;42.80;;;18.95;;
12832;SDS011;6483;51.310;4.462;2022-10-31T09:41:24;26.27;;;17.15;;
12832;SDS011;6483;51.310;4.462;2022-10-31T09:52:20;23.70;;;16.73;;
12832;SDS011;6483;51.310;4.462;2022-10-31T09:54:49;25.25;;;16.92;;
12832;SDS011;6483;51.310;4.462;2022-10-31T09:57:30;25.90;;;17.15;;
12832;SDS011;6483;51.310;4.462;2022-10-31T10:00:03;28.05;;;18.63;;
12832;SDS011;6483;51.310;4.462;2022-10-31T10:05:22;26.65;;;16.95;;
12832;SDS011;6483;51.310;4.462;2022-10-31T10:08:11;22.63;;;16.20;;
12832;SDS011;6483;51.310;4.462;2022-10-31T10:10:49;34.05;;;19.33;;
12832;SDS011;6483;51.310;4.462;2022-10-31T10:16:36;27.83;;;18.17;;
12832;SDS011;6483;51.310;4.462;2022-10-31T10:22:23;26.90;;;18.77;;
12832;SDS011;6483;51.310;4.462;2022-10-31T10:25:14;24.38;;;17.83;;
12832;SDS011;6483;51.310;4.462;2022-10-31T10:30:38;31.10;;;20.25;;
12832;SDS011;6483;51.310;4.462;2022-10-31T10:33:36;29.55;;;20.42;;
12832;SDS011;6483;51.310;4.462;2022-10-31T10:36:15;29.00;;;20.02;;
12832;SDS011;6483;51.310;4.462;2022-10-31T10:38:58;28.23;;;19.40;;
12832;SDS011;6483;51.310;4.462;2022-10-31T10:41:30;29.35;;;19.50;;
12832;SDS011;6483;51.310;4.462;2022-10-31T10:43:57;34.92;;;19.95;;
12832;SDS011;6483;51.310;4.462;2022-10-31T10:46:48;29.05;;;19.50;;
12832;SDS011;6483;51.310;4.462;2022-10-31T10:49:40;34.25;;;19.90;;
12832;SDS011;6483;51.310;4.462;2022-10-31T10:52:20;30.58;;;19.27;;
12832;SDS011;6483;51.310;4.462;2022-10-31T11:00:30;31.63;;;21.30;;
12832;SDS011;6483;51.310;4.462;2022-10-31T11:02:59;33.17;;;21.15;;
12832;SDS011;6483;51.310;4.462;2022-10-31T11:08:00;29.52;;;20.33;;
12832;SDS011;6483;51.310;4.462;2022-10-31T11:10:29;26.95;;;18.75;;
12832;SDS011;6483;51.310;4.462;2022-10-31T11:16:02;26.38;;;17.58;;
12832;SDS011;6483;51.310;4.462;2022-10-31T11:18:37;26.60;;;19.30;;
12832;SDS011;6483;51.310;4.462;2022-10-31T11:21:17;26.17;;;17.42;;
12832;SDS011;6483;51.310;4.462;2022-10-31T11:26:34;27.48;;;17.95;;
12832;SDS011;6483;51.310;4.462;2022-10-31T11:29:03;28.27;;;17.52;;
12832;SDS011;6483;51.310;4.462;2022-10-31T11:31:30;24.02;;;16.35;;
12832;SDS011;6483;51.310;4.462;2022-10-31T11:34:00;25.88;;;17.52;;
12832;SDS011;6483;51.310;4.462;2022-10-31T11:36:32;26.35;;;17.90;;
12832;SDS011;6483;51.310;4.462;2022-10-31T11:39:00;27.48;;;17.30;;
12832;SDS011;6483;51.310;4.462;2022-10-31T11:41:33;25.42;;;17.30;;
12832;SDS011;6483;51.310;4.462;2022-10-31T11:44:09;24.25;;;17.48;;
12832;SDS011;6483;51.310;4.462;2022-10-31T11:46:51;27.75;;;18.83;;
12832;SDS011;6483;51.310;4.462;2022-10-31T11:49:41;26.63;;;19.10;;
12832;SDS011;6483;51.310;4.462;2022-10-31T11:52:17;27.35;;;17.67;;
12832;SDS011;6483;51.310;4.462;2022-10-31T11:58:03;26.52;;;18.85;;
12832;SDS011;6483;51.310;4.462;2022-10-31T12:01:02;32.60;;;19.23;;
12832;SDS011;6483;51.310;4.462;2022-10-31T12:08:23;32.38;;;20.30;;
12832;SDS011;6483;51.310;4.462;2022-10-31T12:39:56;24.92;;;16.73;;
12832;SDS011;6483;51.310;4.462;2022-10-31T12:45:45;24.27;;;16.50;;
12832;SDS011;6483;51.310;4.462;2022-10-31T12:51:40;22.35;;;15.48;;
12832;SDS011;6483;51.310;4.462;2022-10-31T12:59:45;32.20;;;17.20;;
12832;SDS011;6483;51.310;4.462;2022-10-31T13:05:37;31.00;;;17.77;;
12832;SDS011;6483;51.310;4.462;2022-10-31T13:08:10;25.58;;;16.67;;
12832;SDS011;6483;51.310;4.462;2022-10-31T13:10:47;27.30;;;17.17;;
12832;SDS011;6483;51.310;4.462;2022-10-31T13:13:34;28.85;;;16.60;;
12832;SDS011;6483;51.310;4.462;2022-10-31T13:16:20;30.50;;;17.48;;
12832;SDS011;6483;51.310;4.462;2022-10-31T13:18:54;25.17;;;17.25;;
12832;SDS011;6483;51.310;4.462;2022-10-31T13:21:37;23.27;;;16.13;;
12832;SDS011;6483;51.310;4.462;2022-10-31T13:24:12;30.52;;;17.40;;
12832;SDS011;6483;51.310;4.462;2022-10-31T13:26:44;27.60;;;18.17;;
12832;SDS011;6483;51.310;4.462;2022-10-31T13:29:26;27.13;;;17.50;;
12832;SDS011;6483;51.310;4.462;2022-10-31T13:31:55;30.65;;;16.95;;
12832;SDS011;6483;51.310;4.462;2022-10-31T13:45:19;23.40;;;15.02;;
12832;SDS011;6483;51.310;4.462;2022-10-31T13:50:32;24.98;;;14.00;;
12832;SDS011;6483;51.310;4.462;2022-10-31T13:53:11;22.90;;;13.75;;
12832;SDS011;6483;51.310;4.462;2022-10-31T13:55:43;23.70;;;13.02;;
12832;SDS011;6483;51.310;4.462;2022-10-31T14:00:57;23.25;;;13.35;;
12832;SDS011;6483;51.310;4.462;2022-10-31T14:03:45;18.90;;;12.05;;
12832;SDS011;6483;51.310;4.462;2022-10-31T14:06:19;17.92;;;12.63;;
12832;SDS011;6483;51.310;4.462;2022-10-31T14:08:48;19.77;;;12.10;;
12832;SDS011;6483;51.310;4.462;2022-10-31T14:11:23;16.65;;;11.48;;
12832;SDS011;6483;51.310;4.462;2022-10-31T14:13:52;26.10;;;13.27;;
12832;SDS011;6483;51.310;4.462;2022-10-31T14:16:22;14.70;;;12.00;;
12832;SDS011;6483;51.310;4.462;2022-10-31T14:19:06;16.48;;;11.07;;
12832;SDS011;6483;51.310;4.462;2022-10-31T14:21:37;15.45;;;10.07;;
12832;SDS011;6483;51.310;4.462;2022-10-31T14:29:31;15.10;;;9.18;;
12832;SDS011;6483;51.310;4.462;2022-10-31T14:32:07;14.23;;;8.50;;
12832;SDS011;6483;51.310;4.462;2022-10-31T14:34:53;18.40;;;9.52;;
12832;SDS011;6483;51.310;4.462;2022-10-31T14:40:27;15.38;;;8.73;;
12832;SDS011;6483;51.310;4.462;2022-10-31T14:45:50;17.30;;;9.57;;
12832;SDS011;6483;51.310;4.462;2022-10-31T14:48:35;16.08;;;9.68;;
12832;SDS011;6483;51.310;4.462;2022-10-31T14:51:15;18.25;;;9.15;;
12832;SDS011;6483;51.310;4.462;2022-10-31T14:53:51;15.90;;;9.07;;
12832;SDS011;6483;51.310;4.462;2022-10-31T14:58:52;13.35;;;8.23;;
12832;SDS011;6483;51.310;4.462;2022-10-31T15:01:33;15.30;;;8.52;;
12832;SDS011;6483;51.310;4.462;2022-10-31T15:09:54;16.92;;;10.35;;
12832;SDS011;6483;51.310;4.462;2022-10-31T15:12:32;17.52;;;10.55;;
12832;SDS011;6483;51.310;4.462;2022-10-31T15:15:11;18.17;;;11.10;;
12832;SDS011;6483;51.310;4.462;2022-10-31T15:17:57;19.60;;;11.48;;
12832;SDS011;6483;51.310;4.462;2022-10-31T15:20:36;21.52;;;10.82;;
12832;SDS011;6483;51.310;4.462;2022-10-31T15:23:09;18.17;;;10.38;;
12832;SDS011;6483;51.310;4.462;2022-10-31T15:25:39;13.90;;;10.90;;
12832;SDS011;6483;51.310;4.462;2022-10-31T15:28:12;15.77;;;9.65;;
12832;SDS011;6483;51.310;4.462;2022-10-31T15:30:48;18.88;;;11.45;;
12832;SDS011;6483;51.310;4.462;2022-10-31T15:33:22;17.15;;;10.52;;
12832;SDS011;6483;51.310;4.462;2022-10-31T15:35:56;19.25;;;10.02;;
12832;SDS011;6483;51.310;4.462;2022-10-31T15:38:26;18.60;;;11.15;;
12832;SDS011;6483;51.310;4.462;2022-10-31T15:40:55;18.67;;;10.95;;
12832;SDS011;6483;51.310;4.462;2022-10-31T15:43:30;17.90;;;10.80;;
12832;SDS011;6483;51.310;4.462;2022-10-31T15:46:00;19.55;;;11.82;;
12832;SDS011;6483;51.310;4.462;2022-10-31T15:48:27;19.08;;;11.70;;
12832;SDS011;6483;51.310;4.462;2022-10-31T15:50:56;21.98;;;12.35;;
12832;SDS011;6483;51.310;4.462;2022-10-31T15:53:24;22.13;;;12.73;;
12832;SDS011;6483;51.310;4.462;2022-10-31T15:56:21;20.73;;;12.68;;
12832;SDS011;6483;51.310;4.462;2022-10-31T15:58:49;27.38;;;14.57;;
12832;SDS011;6483;51.310;4.462;2022-10-31T16:01:26;17.23;;;12.57;;
12832;SDS011;6483;51.310;4.462;2022-10-31T16:06:59;30.45;;;15.60;;
12832;SDS011;6483;51.310;4.462;2022-10-31T16:09:27;26.23;;;15.95;;
12832;SDS011;6483;51.310;4.462;2022-10-31T16:11:53;23.73;;;14.93;;
12832;SDS011;6483;51.310;4.462;2022-10-31T16:14:22;25.80;;;14.93;;
12832;SDS011;6483;51.310;4.462;2022-10-31T16:16:51;21.95;;;14.48;;
12832;SDS011;6483;51.310;4.462;2022-10-31T16:19:27;23.92;;;13.63;;
12832;SDS011;6483;51.310;4.462;2022-10-31T16:22:06;24.52;;;13.73;;
12832;SDS011;6483;51.310;4.462;2022-10-31T16:24:45;24.08;;;13.85;;
12832;SDS011;6483;51.310;4.462;2022-10-31T16:27:25;21.25;;;13.27;;
12832;SDS011;6483;51.310;4.462;2022-10-31T16:29:54;22.65;;;13.85;;
12832;SDS011;6483;51.310;4.462;2022-10-31T16:37:41;21.52;;;13.13;;
12832;SDS011;6483;51.310;4.462;2022-10-31T16:40:12;17.65;;;12.38;;
12832;SDS011;6483;51.310;4.462;2022-10-31T16:42:41;24.75;;;13.85;;
12832;SDS011;6483;51.310;4.462;2022-10-31T16:45:18;22.20;;;12.63;;
12832;SDS011;6483;51.310;4.462;2022-10-31T16:47:47;27.27;;;13.40;;
12832;SDS011;6483;51.310;4.462;2022-10-31T16:50:23;20.70;;;13.00;;
12832;SDS011;6483;51.310;4.462;2022-10-31T16:52:51;25.30;;;15.57;;
12832;SDS011;6483;51.310;4.462;2022-10-31T16:55:17;28.27;;;14.60;;
12832;SDS011;6483;51.310;4.462;2022-10-31T16:57:46;27.67;;;15.07;;
12832;SDS011;6483;51.310;4.462;2022-10-31T17:00:16;27.10;;;15.30;;
12832;SDS011;6483;51.310;4.462;2022-10-31T17:02:52;29.35;;;15.48;;
12832;SDS011;6483;51.310;4.462;2022-10-31T17:05:21;30.45;;;15.07;;
12832;SDS011;6483;51.310;4.462;2022-10-31T17:07:54;25.08;;;15.68;;
12832;SDS011;6483;51.310;4.462;2022-10-31T17:10:23;36.63;;;18.02;;
12832;SDS011;6483;51.310;4.462;2022-10-31T17:12:50;27.77;;;16.25;;
12832;SDS011;6483;51.310;4.462;2022-10-31T17:15:26;30.17;;;17.70;;
12832;SDS011;6483;51.310;4.462;2022-10-31T17:17:59;28.90;;;16.98;;
12832;SDS011;6483;51.310;4.462;2022-10-31T17:20:26;36.25;;;19.48;;
12832;SDS011;6483;51.310;4.462;2022-10-31T17:22:56;37.42;;;19.00;;
12832;SDS011;6483;51.310;4.462;2022-10-31T17:25:24;30.27;;;18.88;;
12832;SDS011;6483;51.310;4.462;2022-10-31T17:27:52;29.38;;;19.08;;
12832;SDS011;6483;51.310;4.462;2022-10-31T17:30:18;32.30;;;18.27;;
12832;SDS011;6483;51.310;4.462;2022-10-31T17:32:46;34.63;;;18.85;;
12832;SDS011;6483;51.310;4.462;2022-10-31T17:35:18;28.80;;;18.45;;
12832;SDS011;6483;51.310;4.462;2022-10-31T17:37:45;30.75;;;18.85;;
12832;SDS011;6483;51.310;4.462;2022-10-31T17:40:11;34.85;;;19.77;;
12832;SDS011;6483;51.310;4.462;2022-10-31T17:42:40;33.13;;;19.23;;
12832;SDS011;6483;51.310;4.462;2022-10-31T17:45:06;36.70;;;19.88;;
12832;SDS011;6483;51.310;4.462;2022-10-31T17:47:33;32.60;;;19.40;;
12832;SDS011;6483;51.310;4.462;2022-10-31T17:49:59;33.58;;;19.25;;
12832;SDS011;6483;51.310;4.462;2022-10-31T17:52:28;35.17;;;18.02;;
12832;SDS011;6483;51.310;4.462;2022-10-31T17:54:54;35.40;;;18.80;;
12832;SDS011;6483;51.310;4.462;2022-10-31T17:57:19;30.20;;;18.55;;
12832;SDS011;6483;51.310;4.462;2022-10-31T17:59:45;29.23;;;17.33;;
12832;SDS011;6483;51.310;4.462;2022-10-31T18:02:14;28.90;;;17.38;;
12832;SDS011;6483;51.310;4.462;2022-10-31T18:04:42;33.25;;;18.60;;